Flight Track Log - Related Links

Times and Time Zones

All times are in EDT time to prevent confusion due to time zone crossing. See the XOJ750 flight status page for this flight to view local times or setup timezone preferences in your user account.

Time Position Orientation Groundspeed Altitude Reporting Facility
EDT Latitude Longitude Course Direction KTS MPH feet Rate Location/Type
Wed 12:43:16 PM 45.7583 -111.1242 83° East 198 228 5,400  Level Salt Lake Center
Wed 12:44:18 PM 45.7150 -111.0611 135° Southeast 222 255 7,800 2,323 Climbing Salt Lake Center
Wed 12:45:20 PM 45.6658 -110.9817 132° Southeast 243 280 10,200 2,419 Climbing Salt Lake Center
Wed 12:46:00 PM 45.8831 -109.9904 82° East  Level Estimated
Wed 12:46:22 PM 45.6533 -110.8733 99° East 275 316 12,800  Level Salt Lake Center
Wed 12:47:00 PM 45.8996 -109.7963 83° East  Level Estimated
Wed 12:47:24 PM 45.6528 -110.7617 90° East 285 328 15,100  Level Salt Lake Center
Wed 12:48:00 PM 45.9157 -109.6022 83° East  Level Estimated
Wed 12:48:27 PM 45.6678 -110.6169 82° East 309 356 17,200  Level Salt Lake Center
Wed 12:49:29 PM 45.6639 -110.4786 92° East 339 390 18,200 968 Climbing Salt Lake Center
Wed 12:51:33 PM 45.6592 -110.1578 91° East 409 471 20,200 968 Climbing Salt Lake Center
Wed 12:52:35 PM 45.6567 -109.9883 91° East 423 487 21,200 968 Climbing Salt Lake Center
Wed 12:53:37 PM 45.6531 -109.8150 92° East 436 502 22,200 1,065 Climbing Salt Lake Center
Wed 12:54:39 PM 45.6494 -109.6017 91° East 445 512 23,400 1,065 Climbing Salt Lake Center
Wed 12:55:41 PM 45.6450 -109.4239 92° East 447 514 24,400 968 Climbing Salt Lake Center
Wed 12:56:43 PM 45.6403 -109.2411 92° East 459 528 25,400 968 Climbing Salt Lake Center
Wed 12:57:45 PM 45.6350 -109.0592 92° East 460 529 26,400 968 Climbing Salt Lake Center
Wed 12:58:47 PM 45.6283 -108.8722 93° East 469 540 27,400 1,016 Climbing Salt Lake Center
Wed 12:59:49 PM 45.6233 -108.6833 92° East 475 547 28,500 968 Climbing Salt Lake Center
Wed 01:00:51 PM 45.6169 -108.4933 93° East 479 551 29,400 919 Climbing Salt Lake Center
Wed 01:01:53 PM 45.6103 -108.2625 92° East 485 558 30,400 871 Climbing Salt Lake Center
Wed 01:02:55 PM 45.6036 -108.0675 93° East 488 562 31,200 726 Climbing Salt Lake Center
Wed 01:03:57 PM 45.5964 -107.8678 93° East 499 574 31,900 726 Climbing Salt Lake Center
Wed 01:04:59 PM 45.5892 -107.6661 93° East 506 582 32,700 677 Climbing Salt Lake Center
Wed 01:06:01 PM 45.5803 -107.4614 93° East 515 593 33,300 581 Climbing Salt Lake Center
Wed 01:07:03 PM 45.5719 -107.2550 93° East 521 600 33,900 581 Climbing Salt Lake Center
Wed 01:08:05 PM 45.5628 -107.0461 94° East 525 604 34,500 629 Climbing Salt Lake Center
Wed 01:09:07 PM 45.5511 -106.7961 94° East 526 605 35,200 629 Climbing Salt Lake Center
Wed 01:10:09 PM 45.5436 -106.5894 93° East 523 602 35,800 629 Climbing Salt Lake Center
Wed 01:11:11 PM 45.5331 -106.3817 94° East 525 604 36,500 677 Climbing Salt Lake Center
Wed 01:12:13 PM 45.5214 -106.1747 95° East 525 604 37,200 672 Climbing Salt Lake Center
Wed 01:13:16 PM 45.5106 -105.9694 94° East 522 601 37,900 624 Climbing Salt Lake Center
Wed 01:14:18 PM 45.4994 -105.7658 94° East 518 596 38,500 677 Climbing Salt Lake Center
Wed 01:15:20 PM 45.4858 -105.5244 95° East 511 588 39,300 726 Climbing Salt Lake Center
Wed 01:16:22 PM 45.4733 -105.3269 95° East 505 581 40,000 677 Climbing Salt Lake Center
Wed 01:17:24 PM 45.4617 -105.1308 95° East 502 578 40,700 484 Climbing Salt Lake Center
Wed 01:18:26 PM 45.4492 -104.9333 95° East 500 575 41,000 145 Climbing Salt Lake Center
Wed 01:19:28 PM 45.4369 -104.7344 95° East 505 581 41,000  Level Salt Lake Center
Wed 01:20:30 PM 45.4222 -104.5136 95° East 513 590 41,000  Level Salt Lake Center
Wed 01:21:32 PM 45.4081 -104.3122 96° East 515 593 41,000  Level Salt Lake Center
Wed 01:22:34 PM 45.3944 -104.1125 95° East 511 588 41,000  Level Salt Lake Center
Wed 01:23:36 PM 45.3797 -103.9106 96° East 514 592 41,000  Level Salt Lake Center
Wed 01:24:38 PM 45.3617 -103.6708 96° East 512 589 41,000  Level Salt Lake Center
Wed 01:25:40 PM 45.3469 -103.4736 96° East 507 583 41,000  Level Salt Lake Center
Wed 01:26:42 PM 45.3314 -103.2744 96° East 508 585 41,000  Level Salt Lake Center
Wed 01:27:37 PM 45.3167 -103.0878 96° East 509 586 41,000  Level Minneapolis Center
Wed 01:28:39 PM 45.3006 -102.8889 96° East 508 585 41,000  Level Minneapolis Center
Wed 01:29:41 PM 45.2842 -102.6919 97° East 505 581 41,000  Level Minneapolis Center
Wed 01:30:44 PM 45.2672 -102.4947 97° East 505 581 41,000  Level Minneapolis Center
Wed 01:31:46 PM 45.2461 -102.2572 97° East 506 582 41,000  Level Minneapolis Center
Wed 01:32:48 PM 45.2292 -102.0608 97° East 504 580 41,000  Level Minneapolis Center
Wed 01:33:50 PM 45.2114 -101.8650 97° East 502 578 41,000  Level Minneapolis Center
Wed 01:34:52 PM 45.1944 -101.6697 97° East 500 575 41,000  Level Minneapolis Center
Wed 01:35:54 PM 45.1753 -101.4756 98° East 499 574 41,000  Level Minneapolis Center
Wed 01:36:56 PM 45.1569 -101.2792 97° East 502 578 41,000  Level Minneapolis Center
Wed 01:37:58 PM 45.1336 -101.0442 98° East 503 579 41,000  Level Minneapolis Center
Wed 01:39:00 PM 45.1139 -100.8489 98° East 503 579 41,000  Level Minneapolis Center
Wed 01:40:02 PM 45.0944 -100.6536 98° East 502 578 41,000  Level Minneapolis Center
Wed 01:41:05 PM 45.0753 -100.4617 98° East 499 574 41,000  Level Minneapolis Center
Wed 01:42:07 PM 45.0550 -100.2714 99° East 495 570 41,000  Level Minneapolis Center
Wed 01:43:09 PM 45.0328 -100.0636 99° East 499 574 41,000  Level Minneapolis Center
Wed 01:44:11 PM 45.0100 -99.8589 99° East 500 575 41,000  Level Minneapolis Center
Wed 01:45:13 PM 44.9914 -99.6664 98° East 499 574 41,000  Level Minneapolis Center
Wed 01:46:15 PM 44.9708 -99.4736 99° East 497 572 41,000  Level Minneapolis Center
Wed 01:47:17 PM 44.9433 -99.2414 99° East 500 575 41,000  Level Minneapolis Center
Wed 01:48:19 PM 44.9219 -99.0461 99° East 503 579 41,000  Level Minneapolis Center
Wed 01:49:21 PM 44.8992 -98.8525 99° East 502 578 41,000  Level Minneapolis Center
Wed 01:50:23 PM 44.8758 -98.6592 100° East 502 578 41,000  Level Minneapolis Center
Wed 01:51:26 PM 44.8531 -98.4658 99° East 501 577 41,000  Level Minneapolis Center
Wed 01:52:28 PM 44.8258 -98.2442 100° East 503 579 41,000  Level Minneapolis Center
Wed 01:53:30 PM 44.8011 -98.0514 100° East 502 578 41,000  Level Minneapolis Center
Wed 01:54:32 PM 44.7769 -97.8600 100° East 498 573 41,000  Level Minneapolis Center
Wed 01:55:34 PM 44.7514 -97.6681 101° East 499 574 41,000  Level Minneapolis Center
Wed 01:56:36 PM 44.7264 -97.4758 100° East 500 575 41,000  Level Minneapolis Center
Wed 01:57:38 PM 44.6961 -97.2444 100° East 502 578 41,000  Level Minneapolis Center
Wed 01:58:40 PM 44.6686 -97.0519 101° East 503 579 41,000  Level Minneapolis Center
Wed 01:59:42 PM 44.6428 -96.8583 101° East 503 579 41,000  Level Minneapolis Center
Wed 02:00:45 PM 44.6161 -96.6653 101° East 503 579 41,000  Level Minneapolis Center
Wed 02:01:47 PM 44.5903 -96.4722 101° East 501 577 41,000  Level Minneapolis Center
Wed 02:02:49 PM 44.5633 -96.2794 101° East 501 577 41,000  Level Minneapolis Center
Wed 02:03:51 PM 44.5364 -96.0872 101° East 498 573 41,000  Level Minneapolis Center
Wed 02:04:53 PM 44.5078 -95.8950 102° East 499 574 41,000  Level Minneapolis Center
Wed 02:05:55 PM 44.4750 -95.6653 101° East 499 574 41,000  Level Minneapolis Center
Wed 02:06:57 PM 44.4458 -95.4750 102° East 497 572 41,000  Level Minneapolis Center
Wed 02:07:59 PM 44.4164 -95.2831 102° East 502 578 41,000  Level Minneapolis Center
Wed 02:09:01 PM 44.3864 -95.0925 102° East 502 578 41,000  Level Minneapolis Center
Wed 02:10:03 PM 44.3592 -94.9042 101° East 496 571 41,000  Level Minneapolis Center
Wed 02:11:06 PM 44.3278 -94.7158 103° East 497 572 41,000  Level Minneapolis Center
Wed 02:12:08 PM 44.2942 -94.5019 102° East 497 572 41,000  Level Minneapolis Center
Wed 02:13:10 PM 44.2636 -94.3150 103° East 496 571 41,000  Level Minneapolis Center
Wed 02:14:12 PM 44.2328 -94.1258 103° East 501 577 41,000  Level Minneapolis Center
Wed 02:15:14 PM 44.2036 -93.9397 102° East 498 573 41,000  Level Minneapolis Center
Wed 02:16:16 PM 44.1675 -93.7156 103° East 498 573 41,000  Level Minneapolis Center
Wed 02:17:18 PM 44.1353 -93.5303 104° East 498 573 41,000  Level Minneapolis Center
Wed 02:18:20 PM 44.1033 -93.3425 103° East 502 578 41,000  Level Minneapolis Center
Wed 02:19:22 PM 44.0719 -93.1558 103° East 502 578 41,000  Level Minneapolis Center
Wed 02:20:24 PM 44.0325 -92.9300 104° East 504 580 41,000  Level Minneapolis Center
Wed 02:21:27 PM 43.9989 -92.7431 104° East 504 580 41,000  Level Minneapolis Center
Wed 02:22:29 PM 43.9661 -92.5558 104° East 504 580 41,000  Level Minneapolis Center
Wed 02:23:31 PM 43.9333 -92.3689 104° East 504 580 41,000  Level Minneapolis Center
Wed 02:24:33 PM 43.8989 -92.1811 104° East 505 581 41,000  Level Minneapolis Center
Wed 02:25:35 PM 43.8581 -91.9572 104° East 504 580 41,000  Level Minneapolis Center
Wed 02:26:37 PM 43.8247 -91.7700 104° East 504 580 41,000  Level Minneapolis Center
Wed 02:27:39 PM 43.7933 -91.6011 104° East 503 579 41,000  Level Minneapolis Center
Wed 02:28:41 PM 43.7581 -91.4150 105° East 503 579 41,000  Level Minneapolis Center
Wed 02:29:56 PM 43.7081 -91.1553 105° East 503 579 41,000  Level Minneapolis Center
Wed 02:30:58 PM 43.6728 -90.9678 105° East 505 581 41,000  Level Minneapolis Center
Wed 02:32:00 PM 43.6367 -90.7814 105° East 507 583 41,000  Level Minneapolis Center
Wed 02:33:02 PM 43.5997 -90.5958 105° East 505 581 41,000  Level Minneapolis Center
Wed 02:34:04 PM 43.5636 -90.4089 105° East 506 582 41,000  Level Minneapolis Center
Wed 02:35:19 PM 43.5125 -90.1578 106° East 506 582 41,000  Level Minneapolis Center
Wed 02:36:21 PM 43.4747 -89.9728 106° East 503 579 41,000  Level Minneapolis Center
Wed 02:37:23 PM 43.4589 -89.7803 96° East 506 582 41,000  Level Minneapolis Center
Wed 02:38:25 PM 43.4636 -89.5511 88° East 510 587 41,000  Level Minneapolis Center
Wed 02:39:27 PM 43.4633 -89.3550 90° East 511 588 41,000  Level Minneapolis Center
Wed 02:40:29 PM 43.4628 -89.1581 90° East 512 589 41,000  Level Minneapolis Center
Wed 02:41:31 PM 43.4617 -88.9628 90° East 510 587 41,000  Level Minneapolis Center
Wed 02:42:33 PM 43.4606 -88.7636 90° East 515 593 41,000  Level Minneapolis Center
Wed 02:43:35 PM 43.4592 -88.5647 90° East 517 595 41,000  Level Minneapolis Center
Wed 02:44:37 PM 43.4542 -88.3239 92° East 522 601 41,000  Level Minneapolis Center
Wed 02:45:39 PM 43.4547 -88.1811 90° East 524 603 41,000  Level Minneapolis Center
Wed 02:46:42 PM 43.4503 -87.9178 91° East 518 596 41,000  Level Minneapolis Center
Wed 02:47:44 PM 43.4467 -87.7206 91° East 517 595 41,000  Level Minneapolis Center
Wed 02:48:46 PM 43.4439 -87.5203 91° East 520 598 41,000  Level Minneapolis Center
Wed 02:49:48 PM 43.4397 -87.3186 92° East 526 605 41,000  Level Minneapolis Center
Wed 02:51:05 PM 43.4342 -87.0458 92° East 532 612 41,000  Level Chicago Center
Wed 02:52:07 PM 43.4286 -86.8428 92° East 533 613 41,000  Level Chicago Center
Wed 02:53:09 PM 43.4244 -86.6392 92° East 533 613 41,000  Level Chicago Center
Wed 02:54:12 PM 43.4192 -86.4322 92° East 539 620 41,000  Level Chicago Center
Wed 02:55:14 PM 43.4144 -86.2281 92° East 533 613 41,000  Level Chicago Center
Wed 02:56:16 PM 43.4072 -85.9831 92° East 530 610 41,000  Level Chicago Center
Wed 02:57:18 PM 43.4000 -85.7767 93° East 534 615 41,000  Level Chicago Center
Wed 02:58:20 PM 43.3933 -85.5733 93° East 530 610 41,000  Level Chicago Center
Wed 02:59:22 PM 43.3853 -85.3697 93° East 530 610 41,000  Level Chicago Center
Wed 03:00:24 PM 43.3778 -85.1642 93° East 536 617 41,000  Level Chicago Center
Wed 03:01:26 PM 43.3697 -84.9603 93° East 535 616 41,000  Level Chicago Center
Wed 03:02:28 PM 43.3608 -84.7556 93° East 537 618 41,000  Level Chicago Center
Wed 03:03:30 PM 43.3506 -84.5092 93° East 539 620 41,000  Level Chicago Center
Wed 03:04:32 PM 43.3414 -84.3050 93° East 536 617 41,000  Level Chicago Center
Wed 03:05:07 PM 43.3339 -84.1767 95° East 537 618 41,000  Level Cleveland Center
Wed 03:06:07 PM 43.3211 -83.9733 95° East 537 618 41,000  Level Cleveland Center
Wed 03:07:07 PM 43.3125 -83.7675 93° East 543 625 41,000  Level Cleveland Center
Wed 03:08:07 PM 43.3036 -83.5558 93° East 543 625 41,000  Level Cleveland Center
Wed 03:09:07 PM 43.2919 -83.3469 94° East 543 625 41,000  Level Cleveland Center
Wed 03:10:07 PM 43.2803 -83.1325 94° East 549 632 41,000  Level Cleveland Center
Wed 03:11:07 PM 43.2678 -82.9297 95° East 549 632 41,000  Level Cleveland Center
Wed 03:12:07 PM 43.2533 -82.7181 95° East 549 632 41,000  Level Cleveland Center
Wed 03:13:07 PM 43.2297 -82.5150 99° East 549 632 41,000  Level Cleveland Center
Wed 03:14:31 PM 43.1833 -82.2167 102° East 550 633 41,000  Level Toronto Center
Wed 03:15:31 PM 43.1500 -82.0167 103° East 550 633 41,000  Level Toronto Center
Wed 03:16:31 PM 43.1333 -81.8000 96° East 550 633 41,000  Level Toronto Center
Wed 03:17:31 PM 43.1000 -81.6000 103° East 550 633 41,000  Level Toronto Center
Wed 03:18:31 PM 43.0667 -81.3833 102° East 560 644 41,000  Level Toronto Center
Wed 03:19:31 PM 43.0333 -81.1833 103° East 550 633 41,000  Level Toronto Center
Wed 03:20:31 PM 43.0167 -80.9833 96° East 560 644 41,000  Level Toronto Center
Wed 03:21:31 PM 43.0167 -80.7667 90° East 560 644 41,000  Level Toronto Center
Wed 03:22:31 PM 43.0167 -80.5500 90° East 560 644 41,000  Level Toronto Center
Wed 03:23:31 PM 43.0000 -80.3333 96° East 550 633 41,000  Level Toronto Center
Wed 03:24:31 PM 43.0000 -80.1333 90° East 550 633 41,000  Level Toronto Center
Wed 03:25:31 PM 42.9833 -79.9333 96° East 550 633 41,000  Level Toronto Center
Wed 03:26:31 PM 42.9667 -79.7167 96° East 550 633 41,000  Level Toronto Center
Wed 03:27:31 PM 42.9667 -79.5167 90° East 550 633 41,000  Level Toronto Center
Wed 03:28:31 PM 42.9500 -79.2833 95° East 550 633 41,000  Level Toronto Center
Wed 03:29:31 PM 42.9500 -79.0833 90° East 550 633 41,000  Level Toronto Center
Wed 03:30:31 PM 42.9333 -78.8833 96° East 550 633 41,000  Level Toronto Center
Wed 03:31:31 PM 42.9333 -78.6833 90° East 550 633 41,000  Level Toronto Center
Wed 03:32:07 PM 42.9286 -78.5928 94° East 553 636 41,000  Level Cleveland Center
Wed 03:33:07 PM 42.9247 -78.3800 91° East 553 636 41,000  Level Cleveland Center
Wed 03:34:07 PM 42.9206 -78.1706 91° East 553 636 41,000  Level Cleveland Center
Wed 03:35:07 PM 42.9156 -77.9411 92° East 553 636 41,000  Level Cleveland Center
Wed 03:36:07 PM 42.9106 -77.7258 92° East 553 636 41,000  Level Cleveland Center
Wed 03:38:31 PM 42.8833 -77.2000 94° East 560 644 41,000  Level Toronto Center
Wed 03:39:08 PM 42.8931 -77.0917 83° East 557 641 41,000  Level Boston Center
Wed 03:40:08 PM 42.8867 -76.8842 92° East 562 647 41,000  Level Boston Center
Wed 03:41:08 PM 42.8803 -76.6711 92° East 562 647 41,000  Level Boston Center
Wed 03:42:20 PM 42.8725 -76.4864 93° East 555 639 41,000  Level Boston Center
Wed 03:43:20 PM 42.8644 -76.2336 92° East 555 639 41,000  Level Boston Center
Wed 03:44:20 PM 42.8556 -75.9978 93° East 563 648 41,000 -450 Level Boston Center
Wed 03:45:20 PM 42.8450 -75.7931 94° East 558 642 40,100 -1,150 Descending Boston Center
Wed 03:46:20 PM 42.8364 -75.5861 93° East 558 642 38,700 -1,400 Descending Boston Center
Wed 03:47:20 PM 42.8272 -75.3761 93° East 558 642 37,300 -1,400 Descending Boston Center
Wed 03:48:20 PM 42.8181 -75.1661 93° East 558 642 35,900 -1,300 Descending Boston Center
Wed 03:49:20 PM 42.8092 -75.0014 94° East 558 642 34,700 -1,350 Descending Boston Center
Wed 03:50:20 PM 42.7958 -74.7519 94° East 558 642 33,200 -1,250 Descending Boston Center
Wed 03:51:20 PM 42.7856 -74.5336 94° East 563 648 32,200 -1,300 Descending Boston Center
Wed 03:52:20 PM 42.7747 -74.3211 94° East 568 654 30,600 -1,067 Descending Boston Center
Wed 03:54:20 PM 42.7517 -73.8992 94° East 558 642 29,000 -700 Descending Boston Center
Wed 03:55:20 PM 42.7392 -73.7178 95° East 551 634 28,500 -850 Descending Boston Center
Wed 03:56:20 PM 42.7183 -73.5167 98° East 546 628 27,300 -1,388 Descending Boston Center
Wed 03:57:21 PM 42.6950 -73.3158 99° East 539 620 25,700 -1,500 Descending Boston Center
Wed 03:58:20 PM 42.6717 -73.0953 98° East 539 620 24,300 -1,140 Descending Boston Center
Wed 04:00:00 PM 42.6267 -72.7969 100° East  Level FlightAware Approximate
Wed 04:00:20 PM 42.6253 -72.7139 100° East 514 592 22,300  Level Boston Center
Wed 04:01:20 PM 42.6047 -72.5331 99° East 484 557 19,000 -3,100 Descending Boston Center
Wed 04:02:20 PM 42.5839 -72.3639 99° East 472 543 16,100 -2,591 Descending Boston Center
Wed 04:03:32 PM 42.5647 -72.2089 99° East 436 502 13,300 -2,500 Descending Boston Center
Wed 04:04:32 PM 42.5456 -72.0456 99° East 388 447 10,600 -1,955 Descending Boston Center
Wed 04:05:44 PM 42.5347 -71.9331 97° East 344 396 9,000 -1,727 Descending Boston Center
Wed 04:06:44 PM 42.5236 -71.7808 96° East 317 365 6,800 -1,850 Descending Boston Center
Wed 04:07:44 PM 42.5292 -71.6681 86° East 301 346 5,300 -1,250 Descending Boston Center
Wed 04:08:44 PM 42.5325 -71.5753 87° East 285 328 4,300 -1,050 Descending Boston Center
Wed 04:09:44 PM 42.5358 -71.4594 88° East 278 320 3,200 -650 Descending Boston Center
Wed 04:10:44 PM 42.5411 -71.3608 86° East 278 320 3,000 -155 Descending Boston Center
Wed 04:11:40 PM 42.5667 -71.2500 73° East 269 310 2,900 -492 Descending KA90
Wed 04:12:46 PM 42.5833 -71.1500 77° East 241 277 2,000 -432 Descending KA90
Wed 04:13:45 PM 42.6000 -71.0667 75° East 231 266 2,000  Level KA90
Wed 04:14:46 PM 42.6167 -71.0000 71° East 222 255 2,000 -198 Level KA90
Wed 04:15:46 PM 42.6333 -70.9167 75° East 226 260 1,600 -200 Descending KA90
Wed 04:16:46 PM 42.6000 -70.8667 132° Southeast 186 214 1,600 -300 Level KA90
Wed 04:17:46 PM 42.5667 -70.8500 160° South 149 171 1,000 -554 Descending KA90
Wed 04:18:56 PM 42.5714 -70.8981 278° West 92 106 400 -514 Descending Boston Center
Wed 04:20:00 PM 42.5833 -70.9000 294° West  Level FlightAware Approximate
Wed 04:27:00 PM 42.5841 -70.9161 294° West  Level Estimated

Login

Don't have an account? Register now (free) for customized features, flight alerts, and more!